Warner, NH

5:43 AM EDT on October 20, 2014 (GMT -0400)
Putney Hill | Change Station
CLOSE
Current Station
Personal Weather Station
Location: Webster, NH
Elevation: 693 ft
Nearby Weather Stations

Elev 693 ft 43.29 °N, 71.73 °W | Updated 3 minutes ago

Partly Cloudy
Partly Cloudy
33.5 °F
Feels Like 34 °F
N
1.0
Wind Variable Wind from East
Gusts 1.0 mph

Today
High -- | Low -- °F
--% Chance of Precip.
Yesterday
High -- | Low -- °F
Precip. -- in
7:06 AM 5:56 PM
Waning Crescent, 12% visible
Pressure 29.99 in
Visibility 10.0 miles
Clouds Clear
Windchill 34 °F
Dew Point 28 °F
Humidity 79%
Rainfall 0.00 in
Snow Depth Not available.
UV 0 out of 12
Pollen .80 out of 12
Ozone Good
Flu Activity Local Activity
METAR KCON 200851Z AUTO 25006KT 10SM CLR 02/M04 A2998 RMK AO2 SLP153 T00171044 50002

More Conditions Fewer Conditions

Pressure 29.99 in
Visibility 10.0 miles
Clouds Clear
Windchill 34 °F
Dew Point 28 °F
Humidity 79%
Rainfall 0.00 in
Snow Depth Not available.
UV 0 out of 12
Pollen .80 out of 12
Ozone Good
Flu Activity Local Activity
METAR KCON 200851Z AUTO 25006KT 10SM CLR 02/M04 A2998 RMK AO2 SLP153 T00171044 50002

More Conditions Fewer Conditions

10-Day Weather Forecast

Almanac

Astronomy

Oct. 20, 2014 Rise Set
Actual Time 7:06 AM EDT 5:56 PM EDT
Civil Twilight 6:37 AM EDT 6:24 PM EDT
Nautical Twilight 6:04 AM EDT 6:58 PM EDT
Astronomical Twilight 5:31 AM EDT 7:31 PM EDT
Moon 3:47 AM EDT 4:21 PM EDT
Length of Visible Light 11h 47m
Length of Day
10h 49m
Waning Crescent, 12% of the Moon is Illuminated
Today
Waning Crescent
Oct 23
New
Oct 30
First Quarter
Nov 6
Full
Nov 14
Last Quarter

Today's Extremes

State Highs State Lows

Community

WunderPhotos

Upload Photos

1,763,325 photos uploaded!

Nearby

Air Quality

  Air Quality AQ Index Pollutant
Yesterday Good
OZONE
Current Good
OZONE
Monday Good
PM2.5
Monday Good
OZONE

Snow Depth

Station Depth Elevation
No new snow has been reported.

Earthquake Activity

City Distance Mag. Time & Date
No recent earthquake activity has been reported nearby.
Minimum magnitude displayed is 2.5.

Coastal Water Temperatures

Place Temperature
No Stations Reporting

Nearby Weather Stations